createdAt,value
2023-01-22T00:01:23.662Z,10.10
2023-01-22T00:07:25.779Z,10.20
2023-01-22T00:13:28.751Z,10.20
2023-01-22T00:19:30.853Z,10.10
2023-01-22T00:25:33.270Z,10.10
2023-01-22T00:31:35.634Z,10.00
2023-01-22T00:37:38.136Z,10.00
2023-01-22T00:43:41.142Z,10.00
2023-01-22T00:49:43.413Z,10.10
2023-01-22T00:55:59.023Z,10.00
2023-01-22T01:02:01.207Z,10.00
2023-01-22T01:08:03.389Z,10.00
2023-01-22T01:14:05.693Z,9.90
2023-01-22T01:20:08.239Z,9.90
2023-01-22T01:26:13.365Z,9.80
2023-01-22T01:32:15.429Z,9.80
2023-01-22T01:38:17.435Z,9.80
2023-01-22T01:44:22.460Z,9.80
2023-01-22T01:50:27.147Z,9.80
2023-01-22T01:56:33.337Z,9.90
2023-01-22T02:02:35.583Z,9.90
2023-01-22T02:08:38.231Z,9.90
2023-01-22T02:14:43.335Z,9.90
2023-01-22T02:20:53.817Z,9.90
2023-01-22T02:26:56.074Z,9.90
2023-01-22T02:32:58.568Z,9.90
2023-01-22T02:39:01.081Z,9.90
2023-01-22T02:45:03.685Z,9.90
2023-01-22T02:51:06.679Z,9.90
2023-01-22T02:57:09.089Z,9.90
2023-01-22T03:03:15.878Z,9.90
2023-01-22T03:09:19.343Z,9.90
2023-01-22T03:15:43.140Z,9.90
2023-01-22T03:21:46.078Z,9.90
2023-01-22T03:28:06.702Z,10.00
2023-01-22T03:34:11.074Z,10.00
2023-01-22T03:40:13.369Z,10.00
2023-01-22T03:46:20.308Z,10.10
2023-01-22T03:52:27.663Z,10.10
2023-01-22T03:58:31.198Z,10.10
2023-01-22T04:04:33.695Z,10.10
2023-01-22T04:10:37.656Z,10.10
2023-01-22T04:16:40.146Z,10.00
2023-01-22T04:22:42.253Z,9.90
2023-01-22T04:28:46.754Z,9.90
2023-01-22T04:34:49.822Z,9.80
2023-01-22T04:41:14.920Z,9.60
2023-01-22T04:47:18.513Z,9.40
2023-01-22T04:53:21.381Z,9.20
2023-01-22T04:59:24.085Z,9.10
2023-01-22T05:05:27.065Z,9.00
2023-01-22T05:11:29.292Z,9.00
2023-01-22T05:17:37.123Z,8.90
2023-01-22T05:23:39.456Z,8.90
2023-01-22T05:29:42.786Z,8.90
2023-01-22T05:36:14.441Z,8.90
2023-01-22T05:48:27.659Z,8.90
2023-01-22T05:54:34.481Z,9.00
2023-01-22T06:00:37.771Z,9.10
2023-01-22T06:06:44.316Z,9.10
2023-01-22T06:12:46.869Z,9.10
2023-01-22T06:18:49.700Z,9.10
2023-01-22T06:24:52.995Z,9.10
2023-01-22T06:31:07.971Z,9.00
2023-01-22T06:37:12.221Z,8.90
2023-01-22T06:43:15.535Z,8.90
2023-01-22T06:49:18.068Z,8.80
2023-01-22T06:55:20.149Z,8.80
2023-01-22T07:01:22.884Z,8.80
2023-01-22T07:07:25.426Z,8.90
2023-01-22T07:13:27.657Z,9.00
2023-01-22T07:19:29.912Z,9.00
2023-01-22T07:25:32.529Z,9.10
2023-01-22T07:31:35.042Z,9.10
2023-01-22T07:37:37.448Z,9.10
2023-01-22T07:43:39.556Z,9.10
2023-01-22T07:49:42.066Z,9.10
2023-01-22T07:55:44.805Z,9.10
2023-01-22T08:01:47.009Z,9.20
2023-01-22T08:07:49.550Z,9.40
2023-01-22T08:13:51.898Z,9.50
2023-01-22T08:19:54.205Z,9.50
2023-01-22T08:26:01.102Z,9.90
2023-01-22T08:32:03.638Z,9.90
2023-01-22T08:38:05.812Z,9.80
2023-01-22T08:44:12.024Z,9.90
2023-01-22T08:50:14.979Z,10.10
2023-01-22T08:56:17.512Z,10.10
2023-01-22T09:02:19.852Z,10.00
2023-01-22T09:08:22.126Z,10.30
2023-01-22T09:14:24.254Z,10.60
2023-01-22T09:20:26.473Z,10.60
2023-01-22T09:26:28.740Z,10.70
2023-01-22T09:32:30.971Z,10.70
2023-01-22T09:38:33.176Z,10.80
2023-01-22T09:44:42.683Z,10.80
2023-01-22T09:50:45.874Z,11.00
2023-01-22T09:56:51.876Z,11.40
2023-01-22T10:03:02.984Z,12.30
2023-01-22T10:09:11.063Z,12.70
2023-01-22T10:15:17.443Z,12.80
2023-01-22T10:21:21.292Z,12.80
2023-01-22T10:27:33.584Z,12.60
2023-01-22T10:33:39.166Z,12.90
2023-01-22T10:39:43.451Z,13.30
2023-01-22T10:45:57.044Z,13.40
2023-01-22T10:52:03.259Z,13.40
2023-01-22T10:58:14.367Z,13.30
2023-01-22T11:04:29.371Z,13.40
2023-01-22T11:10:58.305Z,13.50
2023-01-22T11:17:20.396Z,13.40
2023-01-22T11:23:28.179Z,13.40
2023-01-22T11:29:42.323Z,13.40
2023-01-22T11:36:00.016Z,13.40
2023-01-22T11:42:26.995Z,13.50
2023-01-22T11:48:40.795Z,13.50
2023-01-22T11:54:43.107Z,13.60
2023-01-22T12:00:54.794Z,13.80
2023-01-22T12:07:10.155Z,13.80
2023-01-22T12:13:33.176Z,13.90
2023-01-22T12:19:38.139Z,13.80
2023-01-22T12:25:49.404Z,13.80
2023-01-22T12:31:56.827Z,13.80
2023-01-22T12:38:12.555Z,13.60
2023-01-22T12:44:28.064Z,13.60
2023-01-22T12:50:30.576Z,13.60
2023-01-22T12:56:33.498Z,13.40
2023-01-22T13:02:36.398Z,13.00
2023-01-22T13:08:42.034Z,12.90
2023-01-22T13:14:44.292Z,12.80
2023-01-22T13:20:53.468Z,12.90
2023-01-22T13:27:01.194Z,13.00
2023-01-22T13:33:08.148Z,12.90
2023-01-22T13:39:21.479Z,12.90
2023-01-22T13:45:26.495Z,12.90
2023-01-22T13:51:29.370Z,12.90
2023-01-22T13:57:31.827Z,12.70
2023-01-22T14:03:34.368Z,12.60
2023-01-22T14:09:40.204Z,12.50
2023-01-22T14:15:42.860Z,12.40
2023-01-22T14:21:45.085Z,12.30
2023-01-22T14:27:49.041Z,12.20
2023-01-22T14:33:51.214Z,12.20
2023-01-22T14:39:53.443Z,12.10
2023-01-22T14:45:55.964Z,12.00
2023-01-22T14:51:58.362Z,11.90
2023-01-22T14:58:00.650Z,11.80
2023-01-22T15:04:06.934Z,11.70
2023-01-22T15:10:09.858Z,11.60
2023-01-22T15:16:12.517Z,11.50
2023-01-22T15:22:15.542Z,11.50
2023-01-22T15:28:17.890Z,11.40
2023-01-22T15:34:20.006Z,11.40
2023-01-22T15:40:22.319Z,11.30
2023-01-22T15:46:26.027Z,11.30
2023-01-22T15:52:28.386Z,11.30
2023-01-22T15:58:32.153Z,11.20
2023-01-22T16:04:34.505Z,11.10
2023-01-22T16:10:36.684Z,11.10
2023-01-22T16:16:42.104Z,11.10
2023-01-22T16:22:47.411Z,11.00
2023-01-22T16:28:51.658Z,11.00
2023-01-22T16:34:53.751Z,10.90
2023-01-22T16:41:25.041Z,10.90
2023-01-22T16:47:27.884Z,10.90
2023-01-22T16:53:30.375Z,10.90
2023-01-22T16:59:34.971Z,10.80
2023-01-22T17:05:37.719Z,10.80
2023-01-22T17:11:40.295Z,10.70
2023-01-22T17:17:42.534Z,10.60
2023-01-22T17:23:45.240Z,10.40
2023-01-22T17:29:47.560Z,10.30
2023-01-22T17:35:49.665Z,10.20
2023-01-22T17:41:52.123Z,10.10
2023-01-22T17:47:54.285Z,9.80
2023-01-22T17:53:59.513Z,9.70
2023-01-22T18:00:01.624Z,9.60
2023-01-22T18:06:10.846Z,9.50
2023-01-22T18:12:13.715Z,9.40
2023-01-22T18:18:16.679Z,9.40
2023-01-22T18:24:23.131Z,9.30
2023-01-22T18:30:27.042Z,9.10
2023-01-22T18:36:32.822Z,8.90
2023-01-22T18:42:35.122Z,8.80
2023-01-22T18:48:38.102Z,8.80
2023-01-22T18:54:40.615Z,8.70
2023-01-22T19:00:42.648Z,8.60
2023-01-22T19:06:48.316Z,8.60
2023-01-22T19:12:50.967Z,8.60
2023-01-22T19:18:58.803Z,8.60
2023-01-22T19:25:03.244Z,8.50
2023-01-22T19:31:14.514Z,8.40
2023-01-22T19:37:16.550Z,8.40
2023-01-22T19:43:19.961Z,8.40
2023-01-22T19:49:22.250Z,8.40
2023-01-22T19:55:26.777Z,8.30
2023-01-22T20:01:29.756Z,8.30
2023-01-22T20:07:34.007Z,8.20
2023-01-22T20:13:37.854Z,8.20
2023-01-22T20:19:40.443Z,8.20
2023-01-22T20:25:42.589Z,8.20
2023-01-22T20:31:45.055Z,8.20
2023-01-22T20:37:47.757Z,8.10
2023-01-22T20:43:49.941Z,8.00
2023-01-22T20:49:51.998Z,8.00
2023-01-22T20:56:02.693Z,8.00
2023-01-22T21:02:04.867Z,7.90
2023-01-22T21:08:07.326Z,7.80
2023-01-22T21:14:15.870Z,7.80
2023-01-22T21:20:18.526Z,7.70
2023-01-22T21:26:23.099Z,7.70
2023-01-22T21:32:25.358Z,7.60
2023-01-22T21:38:28.561Z,7.50
2023-01-22T21:44:49.180Z,7.50
2023-01-22T21:50:51.713Z,7.40
2023-01-22T21:56:54.359Z,7.30
2023-01-22T22:02:56.447Z,7.30
2023-01-22T22:09:01.285Z,7.20
2023-01-22T22:15:04.848Z,7.20
2023-01-22T22:21:08.455Z,7.10
2023-01-22T22:27:10.997Z,7.10
2023-01-22T22:33:13.278Z,7.00
2023-01-22T22:39:15.665Z,6.90
2023-01-22T22:45:17.992Z,6.80
2023-01-22T22:51:26.272Z,6.80
2023-01-22T22:57:28.861Z,6.80
2023-01-22T23:03:33.376Z,6.40
2023-01-22T23:09:35.715Z,6.30
2023-01-22T23:15:38.155Z,5.90
2023-01-22T23:21:41.845Z,5.70
2023-01-22T23:27:45.007Z,5.60
2023-01-22T23:33:47.142Z,5.30
2023-01-22T23:39:51.604Z,5.20
2023-01-22T23:45:53.889Z,5.10
2023-01-22T23:51:56.030Z,5.00
2023-01-22T23:57:58.304Z,4.90
